createdAt,value
2022-10-24T00:00:19.122Z,12.31
2022-10-24T00:01:22.228Z,12.28
2022-10-24T00:02:19.234Z,12.27
2022-10-24T00:03:16.106Z,12.22
2022-10-24T00:04:12.841Z,11.37
2022-10-24T00:05:13.067Z,12.52
2022-10-24T00:06:11.637Z,12.69
2022-10-24T00:07:09.508Z,11.74
2022-10-24T00:08:06.215Z,12.67
2022-10-24T00:09:03.666Z,12.63
2022-10-24T00:10:00.352Z,12.22
2022-10-24T00:10:57.047Z,11.91
2022-10-24T00:11:53.742Z,12.29
2022-10-24T00:12:50.412Z,12.12
2022-10-24T00:13:47.201Z,12.15
2022-10-24T00:14:43.884Z,12.21
2022-10-24T00:15:48.318Z,12.18
2022-10-24T00:16:45.015Z,12.21
2022-10-24T00:17:42.127Z,12.00
2022-10-24T00:18:39.229Z,12.17
2022-10-24T00:19:35.996Z,12.23
2022-10-24T00:20:32.715Z,12.15
2022-10-24T00:21:29.410Z,12.17
2022-10-24T00:22:27.825Z,12.22
2022-10-24T00:23:24.738Z,12.19
2022-10-24T00:24:22.261Z,12.47
2022-10-24T00:25:19.036Z,12.57
2022-10-24T00:26:16.799Z,12.40
2022-10-24T00:27:13.498Z,11.78
2022-10-24T00:28:10.337Z,12.05
2022-10-24T00:29:07.845Z,11.55
2022-10-24T00:30:06.190Z,11.76
2022-10-24T00:31:05.009Z,11.82
2022-10-24T00:32:01.703Z,11.94
2022-10-24T00:32:58.522Z,11.86
2022-10-24T00:33:56.709Z,11.88
2022-10-24T00:34:53.397Z,11.80
2022-10-24T00:35:50.135Z,11.93
2022-10-24T00:36:46.817Z,12.06
2022-10-24T00:37:44.005Z,11.88
2022-10-24T00:38:41.193Z,11.65
2022-10-24T00:39:38.130Z,12.08
2022-10-24T00:40:34.865Z,12.37
2022-10-24T00:41:38.130Z,12.31
2022-10-24T00:42:34.888Z,12.29
2022-10-24T00:43:31.607Z,12.05
2022-10-24T00:44:30.079Z,12.30
2022-10-24T00:45:44.946Z,12.57
2022-10-24T00:46:50.229Z,12.40
2022-10-24T00:47:47.182Z,12.50
2022-10-24T00:48:48.316Z,12.21
2022-10-24T00:50:11.714Z,11.96
2022-10-24T00:51:42.507Z,11.95
2022-10-24T00:52:46.249Z,11.77
2022-10-24T00:53:47.603Z,12.28
2022-10-24T00:54:46.939Z,12.03
2022-10-24T00:55:49.744Z,11.93
2022-10-24T00:56:57.726Z,11.84
2022-10-24T00:58:01.590Z,11.15
2022-10-24T00:59:02.086Z,11.68
2022-10-24T01:00:05.721Z,11.84
2022-10-24T01:01:02.794Z,11.85
2022-10-24T01:01:59.706Z,11.97
2022-10-24T01:02:57.293Z,11.95
2022-10-24T01:03:53.999Z,12.11
2022-10-24T01:04:50.771Z,11.82
2022-10-24T01:06:13.409Z,11.63
2022-10-24T01:07:10.066Z,11.92
2022-10-24T01:08:16.531Z,11.98
2022-10-24T01:09:34.348Z,11.94
2022-10-24T01:10:31.037Z,11.76
2022-10-24T01:11:55.619Z,11.73
2022-10-24T01:13:09.398Z,11.99
2022-10-24T01:14:18.707Z,11.91
2022-10-24T01:15:32.531Z,11.97
2022-10-24T01:17:01.007Z,11.54
2022-10-24T01:18:23.494Z,11.71
2022-10-24T01:19:57.572Z,12.02
2022-10-24T01:21:15.926Z,12.15
2022-10-24T01:22:31.403Z,11.96
2022-10-24T01:23:46.789Z,11.90
2022-10-24T01:25:02.210Z,12.00
2022-10-24T01:26:07.711Z,12.25
2022-10-24T01:27:04.407Z,12.34
2022-10-24T01:28:24.528Z,12.22
2022-10-24T01:29:45.397Z,12.25
2022-10-24T01:31:07.726Z,11.76
2022-10-24T01:32:17.278Z,12.00
2022-10-24T01:33:46.492Z,11.70
2022-10-24T01:35:05.290Z,11.72
2022-10-24T01:36:23.804Z,11.67
2022-10-24T01:37:29.785Z,11.49
2022-10-24T01:38:58.078Z,11.58
2022-10-24T01:40:03.606Z,11.60
2022-10-24T01:41:09.851Z,11.63
2022-10-24T01:42:07.762Z,11.68
2022-10-24T01:43:12.088Z,11.17
2022-10-24T01:44:14.951Z,11.83
2022-10-24T01:45:18.997Z,12.01
2022-10-24T01:46:22.894Z,11.55
2022-10-24T01:47:28.761Z,11.40
2022-10-24T01:48:27.119Z,11.23
2022-10-24T01:49:31.487Z,11.37
2022-10-24T01:50:30.524Z,11.94
2022-10-24T01:51:32.089Z,11.83
2022-10-24T01:52:34.875Z,11.88
2022-10-24T01:53:32.124Z,10.81
2022-10-24T01:54:31.770Z,11.89
2022-10-24T01:55:31.729Z,11.39
2022-10-24T01:56:28.453Z,11.47
2022-10-24T01:57:29.330Z,11.37
2022-10-24T01:58:26.294Z,11.16
2022-10-24T01:59:26.075Z,11.26
2022-10-24T02:00:24.647Z,11.30
2022-10-24T02:01:25.500Z,11.29
2022-10-24T02:02:29.329Z,11.47
2022-10-24T02:03:35.031Z,11.23
2022-10-24T02:04:36.783Z,11.16
2022-10-24T02:05:42.427Z,11.48
2022-10-24T02:06:43.510Z,11.67
2022-10-24T02:07:44.918Z,11.07
2022-10-24T02:08:52.643Z,11.18
2022-10-24T02:10:01.046Z,11.25
2022-10-24T02:11:02.628Z,11.10
2022-10-24T02:12:01.023Z,11.51
2022-10-24T02:13:05.462Z,11.42
2022-10-24T02:14:21.322Z,10.70
2022-10-24T02:15:36.289Z,11.06
2022-10-24T02:16:34.909Z,10.95
2022-10-24T02:17:31.970Z,11.01
2022-10-24T02:18:31.069Z,11.45
2022-10-24T02:19:28.814Z,11.57
2022-10-24T02:20:33.604Z,10.91
2022-10-24T02:21:44.788Z,11.10
2022-10-24T02:22:59.081Z,10.95
2022-10-24T02:24:28.915Z,11.20
2022-10-24T02:25:36.654Z,11.67
2022-10-24T02:26:56.685Z,11.65
2022-10-24T02:28:02.382Z,10.67
2022-10-24T02:29:06.650Z,11.15
2022-10-24T02:30:15.824Z,10.06
2022-10-24T02:31:21.334Z,11.15
2022-10-24T02:32:35.668Z,10.81
2022-10-24T02:33:36.019Z,11.13
2022-10-24T02:34:36.876Z,11.00
2022-10-24T02:35:39.026Z,11.41
2022-10-24T02:36:39.815Z,11.41
2022-10-24T02:37:43.781Z,11.38
2022-10-24T02:38:45.377Z,11.13
2022-10-24T02:39:47.394Z,10.98
2022-10-24T02:40:46.070Z,11.34
2022-10-24T02:41:45.740Z,11.50
2022-10-24T02:42:45.957Z,11.40
2022-10-24T02:43:46.767Z,11.28
2022-10-24T02:44:48.101Z,11.16
2022-10-24T02:45:47.182Z,11.08
2022-10-24T02:46:48.148Z,11.36
2022-10-24T02:47:48.555Z,11.59
2022-10-24T02:48:53.252Z,11.63
2022-10-24T02:49:50.166Z,11.32
2022-10-24T02:50:48.603Z,11.19
2022-10-24T02:51:47.661Z,11.04
2022-10-24T02:52:44.930Z,11.37
2022-10-24T02:53:42.018Z,11.39
2022-10-24T02:54:38.688Z,10.90
2022-10-24T02:55:35.542Z,11.04
2022-10-24T02:56:33.684Z,11.51
2022-10-24T02:57:30.405Z,11.66
2022-10-24T02:58:27.080Z,11.22
2022-10-24T02:59:23.776Z,10.08
2022-10-24T03:00:20.633Z,10.40
2022-10-24T03:01:17.692Z,11.29
2022-10-24T03:02:14.464Z,11.35
2022-10-24T03:03:11.265Z,11.02
2022-10-24T03:04:08.013Z,11.07
2022-10-24T03:05:04.933Z,11.25
2022-10-24T03:06:01.964Z,11.11
2022-10-24T03:06:58.706Z,11.05
2022-10-24T03:07:55.413Z,10.96
2022-10-24T03:08:52.110Z,10.85
2022-10-24T03:09:48.785Z,10.95
2022-10-24T03:10:45.445Z,11.34
2022-10-24T03:11:42.542Z,11.18
2022-10-24T03:12:39.242Z,11.10
2022-10-24T03:13:35.944Z,11.06
2022-10-24T03:14:32.609Z,11.35
2022-10-24T03:15:29.570Z,11.05
2022-10-24T03:16:27.006Z,11.43
2022-10-24T03:17:23.760Z,11.08
2022-10-24T03:18:20.587Z,11.36
2022-10-24T03:19:17.267Z,11.25
2022-10-24T03:20:13.942Z,11.46
2022-10-24T03:21:10.712Z,11.42
2022-10-24T03:22:07.394Z,10.91
2022-10-24T03:23:04.211Z,11.07
2022-10-24T03:24:01.034Z,11.24
2022-10-24T03:25:01.823Z,10.02
2022-10-24T03:25:59.616Z,11.21
2022-10-24T03:26:56.290Z,11.26
2022-10-24T03:27:53.090Z,11.13
2022-10-24T03:28:49.813Z,11.38
2022-10-24T03:29:46.470Z,11.52
2022-10-24T03:30:43.155Z,11.19
2022-10-24T03:31:41.055Z,10.93
2022-10-24T03:32:37.795Z,10.64
2022-10-24T03:33:35.055Z,10.64
2022-10-24T03:34:31.919Z,10.84
2022-10-24T03:35:28.614Z,10.74
2022-10-24T03:36:26.153Z,10.87
2022-10-24T03:37:22.888Z,10.86
2022-10-24T03:38:20.318Z,10.79
2022-10-24T03:39:17.017Z,10.84
2022-10-24T03:40:13.714Z,10.76
2022-10-24T03:41:10.456Z,10.71
2022-10-24T03:42:07.190Z,10.83
2022-10-24T03:43:04.681Z,10.60
2022-10-24T03:44:01.381Z,9.70
2022-10-24T03:44:58.073Z,10.67
2022-10-24T03:45:54.780Z,10.56
2022-10-24T03:46:51.486Z,10.64
2022-10-24T03:47:48.215Z,10.67
2022-10-24T03:48:44.897Z,10.40
2022-10-24T03:49:41.616Z,10.66
2022-10-24T03:50:38.313Z,10.70
2022-10-24T03:51:34.947Z,10.67
2022-10-24T03:52:31.739Z,10.88
2022-10-24T03:53:28.491Z,10.93
2022-10-24T03:54:25.205Z,10.91
2022-10-24T03:55:22.385Z,11.05
2022-10-24T03:56:19.101Z,11.19
2022-10-24T03:57:15.879Z,11.01
2022-10-24T03:58:12.646Z,11.15
2022-10-24T03:59:10.269Z,10.94
2022-10-24T04:00:07.631Z,10.84
2022-10-24T04:01:04.740Z,10.86
2022-10-24T04:02:02.953Z,10.76
2022-10-24T04:02:59.658Z,9.67
2022-10-24T04:03:56.375Z,10.54
2022-10-24T04:04:53.092Z,10.41
2022-10-24T04:05:49.858Z,10.57
2022-10-24T04:06:46.555Z,10.90
2022-10-24T04:07:43.636Z,10.63
2022-10-24T04:08:40.502Z,10.17
2022-10-24T04:09:37.280Z,10.41
2022-10-24T04:10:34.233Z,10.55
2022-10-24T04:11:30.974Z,10.49
2022-10-24T04:12:27.767Z,10.54
2022-10-24T04:13:24.491Z,10.46
2022-10-24T04:14:21.579Z,10.55
2022-10-24T04:15:18.330Z,10.33
2022-10-24T04:16:15.043Z,10.45
2022-10-24T04:17:11.765Z,10.65
2022-10-24T04:18:08.438Z,10.44
2022-10-24T04:19:06.538Z,10.44
2022-10-24T04:20:03.835Z,9.83
2022-10-24T04:21:00.566Z,10.86
2022-10-24T04:21:57.412Z,10.61
2022-10-24T04:22:54.190Z,10.48
2022-10-24T04:23:50.878Z,10.40
2022-10-24T04:24:47.671Z,10.40
2022-10-24T04:25:45.999Z,10.34
2022-10-24T04:26:43.439Z,10.44
2022-10-24T04:27:40.780Z,10.42
2022-10-24T04:28:37.470Z,10.71
2022-10-24T04:29:35.175Z,10.79
2022-10-24T04:30:32.329Z,10.43
2022-10-24T04:31:29.165Z,10.37
2022-10-24T04:32:25.911Z,10.43
2022-10-24T04:33:23.040Z,10.43
2022-10-24T04:34:19.729Z,10.35
2022-10-24T04:35:16.561Z,10.31
2022-10-24T04:36:13.699Z,10.33
2022-10-24T04:37:10.483Z,10.38
2022-10-24T04:38:07.175Z,10.38
2022-10-24T04:39:05.048Z,10.32
2022-10-24T04:40:01.747Z,10.23
2022-10-24T04:40:58.578Z,8.99
2022-10-24T04:41:55.281Z,10.23
2022-10-24T04:42:51.956Z,10.36
2022-10-24T04:43:48.647Z,10.34
2022-10-24T04:44:45.339Z,10.33
2022-10-24T04:45:42.538Z,10.27
2022-10-24T04:46:39.289Z,10.33
2022-10-24T04:47:36.454Z,10.28
2022-10-24T04:48:33.304Z,10.26
2022-10-24T04:49:30.069Z,10.37
2022-10-24T04:50:26.761Z,10.35
2022-10-24T04:51:23.462Z,10.41
2022-10-24T04:52:20.167Z,10.43
2022-10-24T04:53:16.858Z,10.53
2022-10-24T04:54:13.549Z,10.46
2022-10-24T04:55:10.220Z,10.76
2022-10-24T04:56:07.374Z,10.73
2022-10-24T04:57:04.129Z,10.93
2022-10-24T04:58:00.994Z,11.09
2022-10-24T04:58:57.734Z,11.23
2022-10-24T04:59:54.471Z,10.28
2022-10-24T05:00:51.242Z,11.05
2022-10-24T05:01:48.219Z,11.17
2022-10-24T05:02:45.320Z,11.26
2022-10-24T05:03:42.066Z,11.29
2022-10-24T05:04:38.873Z,11.23
2022-10-24T05:05:35.574Z,10.45
2022-10-24T05:06:32.263Z,11.01
2022-10-24T05:07:29.040Z,11.09
2022-10-24T05:08:25.830Z,11.04
2022-10-24T05:09:22.629Z,10.70
2022-10-24T05:10:19.457Z,10.24
2022-10-24T05:11:16.215Z,10.18
2022-10-24T05:12:13.817Z,9.80
2022-10-24T05:13:10.543Z,10.38
2022-10-24T05:14:07.698Z,10.48
2022-10-24T05:15:05.100Z,10.27
2022-10-24T05:16:02.069Z,10.58
2022-10-24T05:16:58.839Z,9.59
2022-10-24T05:17:56.703Z,10.24
2022-10-24T05:18:53.741Z,10.37
2022-10-24T05:19:50.536Z,10.94
2022-10-24T05:20:47.260Z,10.90
2022-10-24T05:21:44.045Z,10.51
2022-10-24T05:22:40.778Z,9.95
2022-10-24T05:23:37.490Z,9.73
2022-10-24T05:24:34.195Z,10.55
2022-10-24T05:25:31.070Z,10.59
2022-10-24T05:26:27.811Z,10.47
2022-10-24T05:27:24.862Z,10.62
2022-10-24T05:28:21.571Z,10.58
2022-10-24T05:29:18.247Z,10.99
2022-10-24T05:30:15.526Z,10.94
2022-10-24T05:31:12.270Z,11.13
2022-10-24T05:32:08.988Z,10.28
2022-10-24T05:33:05.722Z,10.92
2022-10-24T05:34:02.480Z,10.82
2022-10-24T05:34:59.180Z,10.59
2022-10-24T05:35:56.357Z,10.87
2022-10-24T05:36:53.172Z,10.83
2022-10-24T05:37:49.858Z,10.92
2022-10-24T05:38:46.700Z,11.13
2022-10-24T05:39:43.722Z,11.16
2022-10-24T05:40:40.505Z,10.91
2022-10-24T05:41:37.245Z,10.20
2022-10-24T05:42:34.018Z,11.26
2022-10-24T05:43:30.707Z,11.22
2022-10-24T05:44:27.759Z,10.93
2022-10-24T05:45:24.615Z,11.07
2022-10-24T05:46:21.365Z,11.13
2022-10-24T05:47:18.107Z,10.49
2022-10-24T05:48:14.843Z,10.98
2022-10-24T05:49:14.380Z,11.02
2022-10-24T05:50:12.157Z,11.22
2022-10-24T05:51:08.987Z,11.52
2022-10-24T05:52:05.702Z,11.49
2022-10-24T05:53:03.129Z,11.65
2022-10-24T05:53:59.975Z,11.57
2022-10-24T05:55:06.805Z,10.58
2022-10-24T05:56:06.101Z,11.43
2022-10-24T05:57:02.783Z,11.63
2022-10-24T05:57:59.463Z,11.82
2022-10-24T05:58:58.013Z,11.37
2022-10-24T05:59:54.974Z,11.56
2022-10-24T06:00:53.954Z,11.53
2022-10-24T06:01:51.224Z,11.43
2022-10-24T06:02:48.261Z,11.56
2022-10-24T06:03:45.026Z,11.50
2022-10-24T06:04:41.786Z,11.63
2022-10-24T06:05:38.514Z,11.51
2022-10-24T06:06:42.893Z,11.57
2022-10-24T06:07:42.130Z,11.89
2022-10-24T06:08:39.203Z,11.81
2022-10-24T06:09:35.915Z,11.85
2022-10-24T06:10:32.601Z,11.62
2022-10-24T06:11:29.329Z,11.24
2022-10-24T06:12:25.994Z,11.12
2022-10-24T06:13:22.691Z,11.62
2022-10-24T06:14:19.385Z,11.54
2022-10-24T06:15:16.086Z,10.90
2022-10-24T06:16:13.287Z,11.10
2022-10-24T06:17:11.842Z,12.06
2022-10-24T06:18:08.899Z,12.13
2022-10-24T06:19:05.797Z,11.29
2022-10-24T06:20:02.758Z,11.30
2022-10-24T06:21:01.445Z,12.17
2022-10-24T06:21:58.666Z,12.30
2022-10-24T06:22:55.355Z,12.26
2022-10-24T06:23:53.203Z,12.10
2022-10-24T06:24:50.020Z,11.28
2022-10-24T06:25:46.840Z,11.98
2022-10-24T06:26:43.548Z,11.96
2022-10-24T06:27:41.023Z,12.16
2022-10-24T06:28:38.833Z,12.14
2022-10-24T06:29:36.326Z,12.17
2022-10-24T06:30:34.214Z,12.38
2022-10-24T06:31:30.941Z,11.95
2022-10-24T06:32:27.720Z,12.38
2022-10-24T06:33:24.531Z,12.64
2022-10-24T06:35:22.893Z,12.70
2022-10-24T06:36:19.872Z,12.49
2022-10-24T06:37:16.686Z,12.85
2022-10-24T06:38:13.377Z,12.50
2022-10-24T06:39:10.160Z,12.90
2022-10-24T06:40:07.487Z,12.89
2022-10-24T06:41:09.608Z,12.94
2022-10-24T06:42:06.327Z,12.83
2022-10-24T06:43:03.050Z,12.85
2022-10-24T06:43:59.782Z,13.00
2022-10-24T06:44:56.505Z,13.00
2022-10-24T06:45:53.323Z,13.14
2022-10-24T06:46:50.097Z,13.24
2022-10-24T06:47:50.572Z,12.88
2022-10-24T06:48:55.110Z,13.12
2022-10-24T06:49:51.838Z,13.07
2022-10-24T06:50:48.538Z,13.10
2022-10-24T06:51:45.274Z,12.25
2022-10-24T06:52:42.054Z,12.92
2022-10-24T06:53:38.758Z,13.10
2022-10-24T06:54:36.757Z,13.07
2022-10-24T06:55:34.127Z,12.80
2022-10-24T06:56:31.037Z,12.97
2022-10-24T06:57:27.839Z,11.81
2022-10-24T06:58:24.709Z,12.66
2022-10-24T06:59:21.448Z,12.99
2022-10-24T07:00:18.300Z,13.28
2022-10-24T07:01:18.488Z,13.30
2022-10-24T07:02:16.661Z,13.14
2022-10-24T07:03:15.996Z,12.48
2022-10-24T07:04:13.257Z,13.57
2022-10-24T07:05:12.910Z,13.27
2022-10-24T07:06:26.524Z,13.54
2022-10-24T07:07:23.462Z,13.54
2022-10-24T07:08:20.496Z,13.54
2022-10-24T07:09:17.362Z,13.55
2022-10-24T07:10:14.818Z,13.53
2022-10-24T07:11:11.703Z,13.25
2022-10-24T07:12:08.672Z,13.46
2022-10-24T07:13:05.549Z,12.76
2022-10-24T07:14:04.522Z,13.48
2022-10-24T07:15:04.450Z,13.59
2022-10-24T07:16:01.165Z,13.76
2022-10-24T07:16:58.348Z,13.70
2022-10-24T07:17:55.040Z,13.70
2022-10-24T07:18:51.864Z,13.82
2022-10-24T07:19:56.459Z,13.64
2022-10-24T07:20:53.502Z,13.81
2022-10-24T07:21:50.224Z,12.99
2022-10-24T07:22:47.217Z,13.98
2022-10-24T07:23:44.233Z,13.98
2022-10-24T07:24:40.920Z,13.11
2022-10-24T07:25:41.346Z,14.06
2022-10-24T07:26:39.114Z,14.09
2022-10-24T07:27:35.810Z,14.16
2022-10-24T07:28:33.951Z,13.19
2022-10-24T07:29:30.658Z,14.29
2022-10-24T07:30:27.377Z,14.00
2022-10-24T07:31:28.149Z,13.48
2022-10-24T07:32:25.142Z,14.44
2022-10-24T07:33:21.913Z,14.27
2022-10-24T07:34:18.843Z,14.13
2022-10-24T07:35:15.700Z,14.38
2022-10-24T07:36:18.220Z,14.49
2022-10-24T07:37:16.063Z,14.67
2022-10-24T07:38:31.378Z,14.75
2022-10-24T07:39:28.087Z,14.73
2022-10-24T07:40:24.775Z,14.53
2022-10-24T07:41:21.599Z,14.59
2022-10-24T07:42:18.947Z,14.83
2022-10-24T07:43:16.851Z,13.93
2022-10-24T07:44:13.699Z,14.71
2022-10-24T07:45:10.828Z,14.93
2022-10-24T07:46:10.531Z,15.00
2022-10-24T07:47:09.048Z,14.20
2022-10-24T07:48:07.006Z,14.85
2022-10-24T07:49:04.044Z,14.75
2022-10-24T07:50:00.761Z,14.96
2022-10-24T07:51:00.113Z,14.68
2022-10-24T07:51:56.814Z,15.03
2022-10-24T07:52:53.499Z,15.09
2022-10-24T07:53:50.457Z,14.61
2022-10-24T07:54:47.142Z,15.10
2022-10-24T07:55:44.601Z,15.07
2022-10-24T07:56:41.363Z,14.50
2022-10-24T07:57:38.099Z,15.04
2022-10-24T07:58:35.978Z,15.10
2022-10-24T07:59:48.003Z,15.25
2022-10-24T08:00:45.615Z,15.32
2022-10-24T08:01:42.585Z,15.26
2022-10-24T08:02:40.186Z,15.05
2022-10-24T08:03:37.634Z,15.33
2022-10-24T08:04:34.419Z,15.41
2022-10-24T08:05:31.357Z,15.42
2022-10-24T08:06:32.016Z,15.29
2022-10-24T08:07:29.964Z,15.48
2022-10-24T08:08:42.080Z,15.23
2022-10-24T08:09:41.154Z,14.81
2022-10-24T08:10:38.698Z,15.54
2022-10-24T08:11:35.466Z,15.22
2022-10-24T08:12:32.165Z,15.59
2022-10-24T08:13:28.926Z,15.59
2022-10-24T08:14:26.278Z,15.35
2022-10-24T08:15:25.704Z,14.87
2022-10-24T08:16:23.748Z,15.87
2022-10-24T08:17:21.599Z,15.70
2022-10-24T08:18:18.309Z,15.65
2022-10-24T08:19:15.274Z,15.91
2022-10-24T08:20:12.435Z,15.37
2022-10-24T08:21:13.274Z,16.01
2022-10-24T08:22:28.617Z,16.11
2022-10-24T08:23:25.934Z,16.03
2022-10-24T08:24:22.931Z,15.18
2022-10-24T08:25:26.214Z,15.84
2022-10-24T08:26:26.646Z,15.69
2022-10-24T08:27:23.418Z,15.65
2022-10-24T08:28:20.925Z,15.93
2022-10-24T08:29:22.782Z,16.23
2022-10-24T08:30:20.381Z,15.75
2022-10-24T08:31:21.030Z,16.23
2022-10-24T08:32:17.749Z,15.46
2022-10-24T08:33:18.724Z,16.23
2022-10-24T08:34:17.049Z,16.13
2022-10-24T08:35:18.041Z,16.40
2022-10-24T08:36:31.458Z,16.54
2022-10-24T08:37:28.205Z,15.76
2022-10-24T08:38:25.054Z,16.54
2022-10-24T08:39:21.841Z,16.49
2022-10-24T08:40:20.543Z,16.28
2022-10-24T08:41:27.382Z,15.80
2022-10-24T08:42:25.579Z,16.50
2022-10-24T08:43:23.609Z,16.42
2022-10-24T08:44:36.654Z,16.73
2022-10-24T08:45:46.535Z,16.46
2022-10-24T08:47:11.565Z,16.52
2022-10-24T08:48:15.607Z,16.72
2022-10-24T08:49:41.053Z,16.70
2022-10-24T08:50:44.354Z,16.48
2022-10-24T08:51:43.423Z,16.76
2022-10-24T08:52:51.776Z,16.92
2022-10-24T08:53:53.947Z,16.98
2022-10-24T08:54:53.694Z,16.94
2022-10-24T08:55:55.857Z,16.97
2022-10-24T08:56:57.995Z,17.05
2022-10-24T08:57:59.325Z,17.18
2022-10-24T08:58:59.698Z,17.29
2022-10-24T09:00:02.461Z,17.23
2022-10-24T09:01:03.280Z,17.33
2022-10-24T09:02:23.752Z,17.44
2022-10-24T09:03:57.944Z,17.19
2022-10-24T09:04:59.613Z,17.31
2022-10-24T09:06:02.738Z,17.34
2022-10-24T09:07:00.933Z,17.36
2022-10-24T09:08:18.239Z,17.31
2022-10-24T09:09:23.534Z,17.48
2022-10-24T09:10:38.653Z,17.52
2022-10-24T09:11:52.563Z,17.60
2022-10-24T09:12:49.572Z,17.63
2022-10-24T09:13:47.010Z,17.19
2022-10-24T09:14:47.363Z,17.65
2022-10-24T09:15:46.457Z,17.46
2022-10-24T09:16:45.501Z,16.86
2022-10-24T09:17:44.010Z,17.73
2022-10-24T09:18:44.726Z,17.73
2022-10-24T09:19:54.892Z,17.78
2022-10-24T09:20:53.977Z,17.88
2022-10-24T09:21:53.840Z,17.83
2022-10-24T09:22:50.715Z,17.88
2022-10-24T09:23:50.611Z,17.87
2022-10-24T09:25:07.502Z,17.80
2022-10-24T09:26:13.555Z,17.98
2022-10-24T09:27:27.445Z,18.09
2022-10-24T09:28:25.065Z,17.86
2022-10-24T09:29:23.013Z,16.51
2022-10-24T09:30:30.161Z,17.63
2022-10-24T09:31:30.040Z,18.15
2022-10-24T09:32:31.148Z,18.01
2022-10-24T09:33:35.124Z,18.22
2022-10-24T09:34:31.928Z,17.04
2022-10-24T09:35:30.710Z,18.23
2022-10-24T09:36:30.734Z,17.60
2022-10-24T09:37:42.747Z,17.57
2022-10-24T09:38:43.658Z,18.22
2022-10-24T09:39:40.472Z,18.18
2022-10-24T09:40:38.126Z,18.08
2022-10-24T09:41:34.852Z,18.35
2022-10-24T09:42:32.005Z,18.00
2022-10-24T09:43:34.298Z,18.36
2022-10-24T09:44:44.066Z,18.23
2022-10-24T09:45:43.039Z,18.25
2022-10-24T09:46:45.917Z,18.52
2022-10-24T09:47:43.553Z,18.23
2022-10-24T09:48:55.673Z,18.48
2022-10-24T09:49:53.413Z,18.57
2022-10-24T09:50:53.211Z,18.62
2022-10-24T09:52:00.256Z,18.64
2022-10-24T09:52:59.386Z,18.62
2022-10-24T09:54:20.566Z,18.71
2022-10-24T09:55:24.315Z,18.66
2022-10-24T09:56:21.293Z,18.41
2022-10-24T09:57:18.453Z,18.47
2022-10-24T09:58:23.103Z,18.36
2022-10-24T09:59:28.340Z,18.83
2022-10-24T10:00:36.575Z,18.32
2022-10-24T10:01:33.325Z,18.63
2022-10-24T10:02:34.938Z,18.69
2022-10-24T10:03:33.116Z,18.10
2022-10-24T10:04:29.814Z,18.93
2022-10-24T10:05:28.106Z,19.09
2022-10-24T10:06:24.907Z,18.28
2022-10-24T10:07:29.146Z,19.13
2022-10-24T10:08:31.812Z,19.14
2022-10-24T10:09:31.579Z,19.10
2022-10-24T10:10:35.646Z,18.64
2022-10-24T10:11:35.213Z,18.23
2022-10-24T10:12:35.824Z,19.14
2022-10-24T10:13:43.265Z,18.25
2022-10-24T10:14:41.974Z,19.22
2022-10-24T10:15:51.935Z,19.27
2022-10-24T10:16:59.955Z,19.35
2022-10-24T10:18:00.961Z,19.46
2022-10-24T10:19:17.117Z,19.45
2022-10-24T10:20:38.164Z,18.64
2022-10-24T10:21:52.371Z,19.29
2022-10-24T10:22:49.073Z,18.54
2022-10-24T10:23:54.070Z,19.42
2022-10-24T10:24:51.081Z,19.27
2022-10-24T10:25:47.813Z,19.38
2022-10-24T10:26:46.068Z,19.45
2022-10-24T10:27:42.881Z,19.53
2022-10-24T10:29:00.052Z,19.41
2022-10-24T10:30:12.213Z,19.56
2022-10-24T10:31:10.902Z,19.61
2022-10-24T10:32:23.253Z,19.17
2022-10-24T10:33:40.159Z,19.66
2022-10-24T10:34:40.910Z,19.76
2022-10-24T10:35:53.413Z,19.79
2022-10-24T10:37:16.968Z,19.76
2022-10-24T10:38:44.649Z,20.00
2022-10-24T10:40:19.530Z,19.99
2022-10-24T10:41:34.504Z,19.70
2022-10-24T10:42:56.901Z,19.93
2022-10-24T10:44:24.839Z,18.80
2022-10-24T10:45:34.738Z,20.03
2022-10-24T10:46:44.225Z,20.04
2022-10-24T10:47:56.162Z,20.10
2022-10-24T10:49:03.120Z,20.10
2022-10-24T10:49:59.858Z,20.05
2022-10-24T10:51:08.161Z,20.19
2022-10-24T10:52:17.245Z,20.22
2022-10-24T10:53:31.460Z,20.26
2022-10-24T10:54:56.076Z,20.43
2022-10-24T10:56:00.747Z,20.46
2022-10-24T10:57:11.695Z,20.33
2022-10-24T10:58:30.208Z,20.43
2022-10-24T10:59:29.278Z,20.55
2022-10-24T11:00:58.563Z,20.63
2022-10-24T11:02:31.694Z,20.51
2022-10-24T11:03:34.526Z,20.45
2022-10-24T11:04:47.055Z,20.64
2022-10-24T11:05:55.589Z,20.60
2022-10-24T11:08:17.203Z,20.68
2022-10-24T11:09:31.288Z,20.61
2022-10-24T11:10:44.930Z,20.72
2022-10-24T11:11:47.263Z,20.76
2022-10-24T11:12:46.334Z,20.66
2022-10-24T11:13:54.476Z,20.76
2022-10-24T11:15:02.586Z,20.82
2022-10-24T11:16:05.593Z,20.51
2022-10-24T11:17:25.890Z,20.85
2022-10-24T11:18:37.140Z,20.11
2022-10-24T11:19:50.050Z,21.12
2022-10-24T11:21:13.819Z,20.61
2022-10-24T11:22:23.423Z,21.15
2022-10-24T11:23:48.870Z,21.15
2022-10-24T11:24:57.503Z,21.06
2022-10-24T11:26:06.674Z,21.15
2022-10-24T11:27:18.281Z,21.16
2022-10-24T11:28:34.796Z,21.15
2022-10-24T11:29:40.782Z,21.15
2022-10-24T11:30:58.798Z,21.00
2022-10-24T11:31:58.990Z,21.24
2022-10-24T11:33:03.544Z,21.26
2022-10-24T11:34:11.487Z,21.37
2022-10-24T11:35:20.185Z,21.38
2022-10-24T11:36:37.198Z,21.18
2022-10-24T11:37:42.455Z,21.34
2022-10-24T11:38:58.284Z,21.51
2022-10-24T11:40:05.002Z,20.80
2022-10-24T11:41:40.171Z,21.49
2022-10-24T11:42:55.292Z,21.52
2022-10-24T11:43:56.876Z,21.62
2022-10-24T11:45:13.647Z,21.66
2022-10-24T11:46:25.754Z,20.97
2022-10-24T11:47:25.405Z,21.70
2022-10-24T11:49:58.275Z,21.59
2022-10-24T11:51:08.031Z,20.35
2022-10-24T11:52:18.966Z,21.59
2022-10-24T11:53:34.010Z,20.70
2022-10-24T11:54:58.417Z,21.59
2022-10-24T11:56:02.417Z,21.63
2022-10-24T11:57:08.538Z,21.56
2022-10-24T11:58:19.722Z,21.68
2022-10-24T11:59:30.768Z,21.61
2022-10-24T12:00:48.252Z,21.55
2022-10-24T12:02:12.359Z,21.60
2022-10-24T12:03:30.623Z,21.69
2022-10-24T12:04:33.472Z,21.75
2022-10-24T12:05:59.634Z,21.61
2022-10-24T12:07:14.642Z,21.72
2022-10-24T12:08:41.190Z,21.66
2022-10-24T12:10:15.162Z,21.74
2022-10-24T12:11:33.489Z,21.91
2022-10-24T12:13:27.286Z,21.91
2022-10-24T12:15:02.845Z,21.98
2022-10-24T12:16:08.444Z,21.89
2022-10-24T12:17:13.801Z,21.87
2022-10-24T12:18:27.199Z,21.86
2022-10-24T12:19:26.394Z,21.10
2022-10-24T12:20:26.646Z,21.05
2022-10-24T12:21:28.567Z,21.82
2022-10-24T12:22:34.011Z,21.95
2022-10-24T12:23:31.687Z,21.59
2022-10-24T12:24:39.058Z,21.89
2022-10-24T12:25:39.138Z,21.96
2022-10-24T12:26:36.164Z,21.61
2022-10-24T12:27:38.912Z,22.34
2022-10-24T12:28:38.336Z,22.35
2022-10-24T12:29:36.995Z,22.26
2022-10-24T12:30:36.686Z,22.35
2022-10-24T12:31:37.624Z,22.17
2022-10-24T12:32:48.632Z,22.41
2022-10-24T12:34:18.576Z,22.47
2022-10-24T12:35:31.591Z,22.51
2022-10-24T12:37:03.038Z,22.50
2022-10-24T12:38:03.072Z,22.35
2022-10-24T12:38:59.700Z,22.52
2022-10-24T12:39:58.455Z,22.57
2022-10-24T12:41:26.787Z,22.48
2022-10-24T12:42:23.539Z,22.48
2022-10-24T12:43:42.845Z,22.41
2022-10-24T12:44:41.354Z,22.41
2022-10-24T12:45:38.113Z,22.44
2022-10-24T12:46:38.091Z,22.41
2022-10-24T12:47:40.234Z,22.17
2022-10-24T12:48:37.429Z,22.38
2022-10-24T12:49:34.115Z,22.09
2022-10-24T12:50:30.758Z,22.52
2022-10-24T12:51:34.710Z,22.49
2022-10-24T12:52:31.343Z,22.54
2022-10-24T12:54:00.541Z,22.30
2022-10-24T12:54:59.013Z,22.47
2022-10-24T12:55:55.797Z,22.46
2022-10-24T12:56:52.614Z,22.34
2022-10-24T12:57:49.454Z,21.92
2022-10-24T12:58:57.770Z,22.12
2022-10-24T13:00:00.407Z,21.58
2022-10-24T13:01:00.812Z,22.07
2022-10-24T13:02:15.409Z,22.42
2022-10-24T13:03:29.941Z,22.01
2022-10-24T13:04:41.204Z,22.47
2022-10-24T13:05:47.310Z,22.40
2022-10-24T13:07:22.354Z,22.42
2022-10-24T13:08:25.110Z,21.84
2022-10-24T13:09:38.319Z,22.53
2022-10-24T13:10:34.946Z,22.54
2022-10-24T13:11:45.357Z,22.55
2022-10-24T13:12:51.782Z,22.56
2022-10-24T13:14:22.939Z,22.20
2022-10-24T13:15:32.297Z,22.38
2022-10-24T13:17:04.083Z,22.59
2022-10-24T13:18:20.675Z,22.66
2022-10-24T13:19:24.109Z,22.63
2022-10-24T13:20:27.687Z,22.69
2022-10-24T13:21:31.299Z,22.59
2022-10-24T13:22:36.954Z,22.25
2022-10-24T13:23:34.521Z,22.59
2022-10-24T13:24:37.368Z,22.57